createdAt,value
2024-04-18T00:01:32.092Z,5.85
2024-04-18T00:05:33.694Z,2.92
2024-04-18T00:09:35.325Z,5.20
2024-04-18T00:13:36.955Z,3.22
2024-04-18T00:17:38.705Z,3.08
2024-04-18T00:21:40.413Z,4.03
2024-04-18T00:25:41.995Z,7.50
2024-04-18T00:29:44.367Z,3.47
2024-04-18T00:33:48.350Z,3.85
2024-04-18T00:37:50.067Z,3.08
2024-04-18T00:41:51.693Z,6.65
2024-04-18T00:45:55.949Z,2.90
2024-04-18T00:49:59.368Z,3.83
2024-04-18T00:54:01.718Z,3.05
2024-04-18T00:58:03.760Z,3.20
2024-04-18T01:02:05.454Z,5.63
2024-04-18T01:06:08.617Z,5.40
2024-04-18T01:10:10.492Z,4.97
2024-04-18T01:14:13.225Z,3.97
2024-04-18T01:18:15.087Z,3.28
2024-04-18T01:22:17.119Z,2.70
2024-04-18T01:26:19.973Z,3.55
2024-04-18T01:30:21.658Z,2.88
2024-04-18T01:34:23.331Z,3.42
2024-04-18T01:38:24.974Z,3.22
2024-04-18T01:42:26.663Z,3.90
2024-04-18T01:46:28.261Z,3.72
2024-04-18T01:50:29.933Z,3.30
2024-04-18T01:54:31.783Z,4.97
2024-04-18T01:58:33.431Z,3.78
2024-04-18T02:02:35.042Z,3.78
2024-04-18T02:06:36.726Z,4.63
2024-04-18T02:10:38.366Z,5.43
2024-04-18T02:14:41.616Z,3.97
2024-04-18T02:18:43.246Z,4.03
2024-04-18T02:22:44.954Z,6.13
2024-04-18T02:26:46.597Z,5.13
2024-04-18T02:30:48.331Z,5.38
2024-04-18T02:34:50.031Z,8.18
2024-04-18T02:38:51.669Z,7.22
2024-04-18T02:42:53.270Z,4.78
2024-04-18T02:46:54.892Z,5.10
2024-04-18T02:50:56.484Z,6.38
2024-04-18T02:54:58.076Z,9.57
2024-04-18T02:59:00.450Z,4.93
2024-04-18T03:03:02.171Z,5.03
2024-04-18T03:07:03.796Z,7.20
2024-04-18T03:11:05.446Z,5.10
2024-04-18T03:15:07.320Z,7.20
2024-04-18T03:19:12.952Z,6.78
2024-04-18T03:23:14.747Z,8.07
2024-04-18T03:27:16.339Z,7.60
2024-04-18T03:31:17.991Z,9.82
2024-04-18T03:35:19.529Z,6.03
2024-04-18T03:39:21.707Z,10.77
2024-04-18T03:43:23.405Z,7.90
2024-04-18T03:47:25.175Z,5.75
2024-04-18T03:51:28.984Z,9.43
2024-04-18T03:55:30.782Z,5.95
2024-04-18T03:59:32.607Z,7.57
2024-04-18T04:03:34.384Z,6.55
2024-04-18T04:07:36.055Z,8.82
2024-04-18T04:11:37.721Z,6.03
2024-04-18T04:15:39.375Z,5.75
2024-04-18T04:19:41.009Z,5.45
2024-04-18T04:23:43.169Z,7.63
2024-04-18T04:27:44.828Z,8.98
2024-04-18T04:31:46.756Z,7.82
2024-04-18T04:35:48.396Z,11.52
2024-04-18T04:39:50.358Z,8.45
2024-04-18T04:43:52.042Z,13.70
2024-04-18T04:47:53.734Z,24.10
2024-04-18T04:51:55.452Z,17.83
2024-04-18T04:55:57.090Z,11.23
2024-04-18T04:59:58.702Z,13.57
2024-04-18T05:04:00.522Z,9.35
2024-04-18T05:08:02.171Z,6.40
2024-04-18T05:12:04.135Z,5.43
2024-04-18T05:16:06.468Z,14.98
2024-04-18T05:20:08.818Z,9.48
2024-04-18T05:24:10.499Z,8.20
2024-04-18T05:28:14.346Z,7.53
2024-04-18T05:32:16.020Z,7.13
2024-04-18T05:36:17.637Z,6.60
2024-04-18T05:40:19.672Z,6.70
2024-04-18T05:44:21.314Z,7.53
2024-04-18T05:48:22.989Z,6.07
2024-04-18T05:52:24.659Z,9.32
2024-04-18T05:56:26.269Z,5.07
2024-04-18T06:00:27.964Z,7.55
2024-04-18T06:04:30.038Z,5.22
2024-04-18T06:08:31.708Z,6.22
2024-04-18T06:12:33.401Z,7.82
2024-04-18T06:16:35.334Z,6.22
2024-04-18T06:20:48.177Z,8.10
2024-04-18T06:24:51.684Z,10.52
2024-04-18T06:28:53.332Z,7.32
2024-04-18T06:32:54.993Z,10.45
2024-04-18T06:36:56.786Z,12.48
2024-04-18T06:40:58.403Z,8.57
2024-04-18T06:45:00.034Z,6.82
2024-04-18T06:49:02.076Z,8.05
2024-04-18T06:53:04.172Z,6.50
2024-04-18T06:57:06.095Z,7.82
2024-04-18T07:01:07.707Z,5.60
2024-04-18T07:05:09.461Z,4.38
2024-04-18T07:09:11.140Z,4.15
2024-04-18T07:13:12.797Z,3.67
2024-04-18T07:17:14.413Z,6.10
2024-04-18T07:21:16.524Z,4.30
2024-04-18T07:25:18.328Z,4.45
2024-04-18T07:29:20.036Z,4.28
2024-04-18T07:33:21.760Z,4.63
2024-04-18T07:37:23.788Z,2.53
2024-04-18T07:41:25.506Z,1.95
2024-04-18T07:45:27.297Z,1.70
2024-04-18T07:49:28.932Z,2.58
2024-04-18T07:53:30.520Z,2.95
2024-04-18T07:57:32.597Z,1.95
2024-04-18T08:01:38.161Z,2.70
2024-04-18T08:05:42.551Z,2.40
2024-04-18T08:09:48.295Z,4.15
2024-04-18T08:13:55.320Z,4.10
2024-04-18T08:17:59.541Z,3.85
2024-04-18T08:22:03.343Z,1.52
2024-04-18T08:26:06.435Z,2.22
2024-04-18T08:30:08.629Z,2.78
2024-04-18T08:34:16.591Z,2.20
2024-04-18T08:38:20.001Z,1.88
2024-04-18T08:42:24.124Z,3.03
2024-04-18T08:46:26.422Z,2.58
2024-04-18T08:50:30.039Z,3.13
2024-04-18T08:54:33.999Z,3.85
2024-04-18T08:58:35.886Z,1.73
2024-04-18T09:02:37.609Z,3.20
2024-04-18T09:06:39.297Z,1.70
2024-04-18T09:10:41.756Z,3.95
2024-04-18T09:14:43.437Z,1.75
2024-04-18T09:18:45.648Z,4.57
2024-04-18T09:22:47.261Z,4.00
2024-04-18T09:26:51.129Z,11.20
2024-04-18T09:30:56.963Z,2.92
2024-04-18T09:34:59.277Z,1.73
2024-04-18T09:39:03.227Z,1.52
2024-04-18T09:43:19.831Z,4.10
2024-04-18T09:47:24.097Z,4.22
2024-04-18T09:51:26.560Z,2.78
2024-04-18T09:55:30.702Z,2.00
2024-04-18T09:59:33.651Z,1.80
2024-04-18T10:03:36.339Z,1.75
2024-04-18T10:07:38.780Z,2.70
2024-04-18T10:11:41.399Z,0.98
2024-04-18T10:15:43.029Z,2.30
2024-04-18T10:19:46.252Z,3.63
2024-04-18T10:23:52.529Z,3.17
2024-04-18T10:27:54.136Z,2.08
2024-04-18T10:31:56.011Z,3.30
2024-04-18T10:36:01.075Z,1.30
2024-04-18T10:40:04.996Z,1.40
2024-04-18T10:44:06.991Z,1.35
2024-04-18T10:48:08.918Z,2.63
2024-04-18T10:52:12.121Z,3.22
2024-04-18T10:56:14.416Z,5.82
2024-04-18T11:00:17.650Z,1.83
2024-04-18T11:04:20.293Z,1.65
2024-04-18T11:08:21.967Z,4.43
2024-04-18T11:12:23.666Z,2.80
2024-04-18T11:16:28.580Z,1.90
2024-04-18T11:20:30.779Z,2.40
2024-04-18T11:24:34.580Z,3.00
2024-04-18T11:28:36.188Z,1.58
2024-04-18T11:32:38.020Z,3.20
2024-04-18T11:36:39.760Z,3.83
2024-04-18T11:40:41.420Z,3.42
2024-04-18T11:44:43.280Z,1.50
2024-04-18T11:48:45.032Z,1.23
2024-04-18T11:52:46.704Z,6.75
2024-04-18T11:56:48.393Z,1.75
2024-04-18T12:00:50.100Z,2.97
2024-04-18T12:04:51.759Z,1.30
2024-04-18T12:08:55.100Z,2.15
2024-04-18T12:12:57.203Z,0.93
2024-04-18T12:16:59.218Z,1.85
2024-04-18T12:21:00.866Z,1.50
2024-04-18T12:25:05.930Z,1.30
2024-04-18T12:29:08.974Z,2.35
2024-04-18T12:33:13.442Z,3.38
2024-04-18T12:37:15.039Z,7.18
2024-04-18T12:41:16.707Z,1.60
2024-04-18T12:45:18.385Z,2.50
2024-04-18T12:49:20.273Z,2.53
2024-04-18T12:53:23.942Z,2.13
2024-04-18T12:57:25.598Z,3.13
2024-04-18T13:01:27.338Z,1.10
2024-04-18T13:05:29.040Z,1.63
2024-04-18T13:09:34.448Z,0.95
2024-04-18T13:13:36.320Z,4.10
2024-04-18T13:17:37.928Z,2.90
2024-04-18T13:21:40.426Z,10.85
2024-04-18T13:25:42.246Z,2.58
2024-04-18T13:29:43.870Z,3.53
2024-04-18T13:33:46.925Z,3.95
2024-04-18T13:37:48.709Z,3.42
2024-04-18T13:41:51.400Z,1.58
2024-04-18T13:45:53.879Z,1.20
2024-04-18T13:49:57.433Z,1.48
2024-04-18T13:53:59.033Z,0.60
2024-04-18T13:58:00.644Z,3.53
2024-04-18T14:02:04.135Z,1.48
2024-04-18T14:06:08.153Z,1.75
2024-04-18T14:10:09.810Z,2.17
2024-04-18T14:14:11.617Z,0.85
2024-04-18T14:18:31.907Z,0.60
2024-04-18T14:22:33.663Z,3.90
2024-04-18T14:26:35.313Z,0.98
2024-04-18T14:30:39.771Z,2.10
2024-04-18T14:34:41.429Z,2.63
2024-04-18T14:38:43.099Z,2.50
2024-04-18T14:42:44.852Z,2.15
2024-04-18T14:46:46.554Z,0.80
2024-04-18T14:50:54.823Z,1.98
2024-04-18T14:54:56.432Z,0.75
2024-04-18T14:58:59.317Z,1.02
2024-04-18T15:03:01.118Z,1.33
2024-04-18T15:07:02.808Z,1.42
2024-04-18T15:11:04.583Z,0.80
2024-04-18T15:15:08.939Z,0.93
2024-04-18T15:19:10.592Z,3.30
2024-04-18T15:23:12.348Z,1.10
2024-04-18T15:27:13.993Z,0.77
2024-04-18T15:31:15.685Z,0.85
2024-04-18T15:35:18.075Z,1.55
2024-04-18T15:39:19.886Z,2.97
2024-04-18T15:43:21.472Z,2.58
2024-04-18T15:47:23.267Z,1.55
2024-04-18T15:51:25.035Z,5.03
2024-04-18T15:55:26.720Z,0.98
2024-04-18T15:59:28.331Z,1.42
2024-04-18T16:03:30.070Z,3.13
2024-04-18T16:07:31.896Z,1.50
2024-04-18T16:11:33.571Z,2.28
2024-04-18T16:15:35.299Z,15.05
2024-04-18T16:19:36.984Z,1.63
2024-04-18T16:23:38.970Z,1.42
2024-04-18T16:27:40.662Z,2.63
2024-04-18T16:31:42.443Z,1.67
2024-04-18T16:35:44.477Z,3.50
2024-04-18T16:39:46.261Z,1.77
2024-04-18T16:43:48.006Z,3.17
2024-04-18T16:47:49.773Z,2.47
2024-04-18T16:51:52.562Z,1.38
2024-04-18T16:55:54.248Z,4.00
2024-04-18T16:59:55.906Z,2.58
2024-04-18T17:03:58.020Z,2.70
2024-04-18T17:08:00.354Z,0.52
2024-04-18T17:12:02.225Z,1.20
2024-04-18T17:16:07.147Z,1.17
2024-04-18T17:20:09.385Z,2.30
2024-04-18T17:24:11.199Z,1.35
2024-04-18T17:28:12.871Z,2.15
2024-04-18T17:32:14.594Z,4.65
2024-04-18T17:36:16.531Z,2.03
2024-04-18T17:40:18.331Z,2.67
2024-04-18T17:44:20.172Z,1.60
2024-04-18T17:48:22.069Z,3.70
2024-04-18T17:52:23.801Z,1.35
2024-04-18T17:56:25.427Z,2.58
2024-04-18T18:00:27.326Z,1.50
2024-04-18T18:04:29.139Z,1.95
2024-04-18T18:08:30.808Z,2.03
2024-04-18T18:12:32.726Z,2.35
2024-04-18T18:16:34.475Z,2.72
2024-04-18T18:20:36.591Z,5.75
2024-04-18T18:24:38.474Z,4.55
2024-04-18T18:28:40.187Z,6.38
2024-04-18T18:32:42.336Z,4.70
2024-04-18T18:36:44.564Z,6.13
2024-04-18T18:40:46.315Z,8.18
2024-04-18T18:44:48.016Z,10.07
2024-04-18T18:48:49.869Z,4.20
2024-04-18T18:52:51.520Z,2.85
2024-04-18T18:56:53.237Z,6.22
2024-04-18T19:00:55.375Z,8.98
2024-04-18T19:04:59.480Z,3.22
2024-04-18T19:09:01.212Z,2.08
2024-04-18T19:13:03.027Z,4.45
2024-04-18T19:17:07.256Z,3.58
2024-04-18T19:21:09.222Z,2.05
2024-04-18T19:25:10.916Z,2.30
2024-04-18T19:29:15.985Z,1.73
2024-04-18T19:33:20.116Z,6.28
2024-04-18T19:37:22.015Z,2.33
2024-04-18T19:41:23.664Z,3.35
2024-04-18T19:45:27.412Z,1.73
2024-04-18T19:49:29.760Z,2.58
2024-04-18T19:53:31.492Z,2.95
2024-04-18T19:57:33.556Z,2.08
2024-04-18T20:01:35.364Z,2.10
2024-04-18T20:05:38.325Z,2.88
2024-04-18T20:09:40.044Z,3.22
2024-04-18T20:13:41.710Z,4.13
2024-04-18T20:17:43.857Z,3.00
2024-04-18T20:21:45.928Z,2.45
2024-04-18T20:25:47.567Z,2.60
2024-04-18T20:29:49.277Z,2.42
2024-04-18T20:33:50.993Z,2.53
2024-04-18T20:37:55.711Z,3.35
2024-04-18T20:41:57.379Z,3.13
2024-04-18T20:45:59.054Z,3.45
2024-04-18T20:50:03.509Z,1.98
2024-04-18T20:54:05.547Z,1.58
2024-04-18T20:58:07.207Z,3.53
2024-04-18T21:02:08.912Z,2.33
2024-04-18T21:06:10.609Z,3.75
2024-04-18T21:10:12.228Z,4.30
2024-04-18T21:14:14.000Z,2.55
2024-04-18T21:18:15.800Z,2.65
2024-04-18T21:22:17.997Z,2.30
2024-04-18T21:26:19.726Z,3.85
2024-04-18T21:30:21.555Z,2.65
2024-04-18T21:34:23.428Z,1.73
2024-04-18T21:38:25.230Z,1.50
2024-04-18T21:42:26.910Z,3.72
2024-04-18T21:46:28.555Z,2.65
2024-04-18T21:50:30.166Z,3.53
2024-04-18T21:54:31.912Z,2.25
2024-04-18T21:58:33.634Z,3.15
2024-04-18T22:02:35.305Z,1.73
2024-04-18T22:06:37.092Z,5.03
2024-04-18T22:10:38.721Z,4.43
2024-04-18T22:14:40.430Z,2.08
2024-04-18T22:18:42.280Z,1.70
2024-04-18T22:22:44.039Z,2.92
2024-04-18T22:26:45.757Z,2.13
2024-04-18T22:30:58.666Z,2.75
2024-04-18T22:35:00.359Z,4.03
2024-04-18T22:39:02.550Z,2.50
2024-04-18T22:43:04.852Z,2.33
2024-04-18T22:47:06.524Z,2.03
2024-04-18T22:51:08.139Z,5.03
2024-04-18T22:55:09.910Z,7.88
2024-04-18T22:59:11.589Z,2.72
2024-04-18T23:03:13.316Z,5.18
2024-04-18T23:07:15.036Z,4.22
2024-04-18T23:11:16.901Z,3.38
2024-04-18T23:15:18.603Z,3.92
2024-04-18T23:19:20.393Z,3.85
2024-04-18T23:23:22.136Z,6.78
2024-04-18T23:27:23.881Z,3.10
2024-04-18T23:31:25.537Z,3.40
2024-04-18T23:35:27.131Z,3.72
2024-04-18T23:39:29.279Z,3.08
2024-04-18T23:43:31.096Z,2.33
2024-04-18T23:47:35.413Z,4.07
2024-04-18T23:51:37.366Z,4.13
2024-04-18T23:55:40.170Z,8.23
2024-04-18T23:59:41.778Z,4.40
